createdAt,value
2022-12-15T00:02:58.462Z,76.69
2022-12-15T00:13:19.456Z,76.49
2022-12-15T00:23:40.154Z,78.29
2022-12-15T00:34:00.845Z,76.06
2022-12-15T00:44:03.152Z,77.35
2022-12-15T00:54:23.955Z,75.76
2022-12-15T01:04:44.877Z,75.96
2022-12-15T01:15:05.501Z,76.30
2022-12-15T01:25:09.775Z,76.62
2022-12-15T01:35:12.151Z,75.35
2022-12-15T01:45:29.360Z,74.79
2022-12-15T01:55:32.492Z,74.35
2022-12-15T02:05:35.730Z,74.68
2022-12-15T02:15:49.797Z,74.19
2022-12-15T02:26:10.474Z,73.76
2022-12-15T02:36:24.330Z,74.06
2022-12-15T02:46:40.900Z,75.05
2022-12-15T02:56:48.980Z,75.44
2022-12-15T03:07:00.802Z,77.02
2022-12-15T03:17:07.260Z,77.30
2022-12-15T03:27:09.431Z,77.12
2022-12-15T03:37:11.673Z,76.92
2022-12-15T03:47:13.859Z,77.05
2022-12-15T03:57:16.050Z,76.91
2022-12-15T04:07:18.283Z,74.24
2022-12-15T04:17:20.674Z,75.14
2022-12-15T04:27:41.292Z,76.11
2022-12-15T04:38:01.798Z,75.56
2022-12-15T04:48:23.158Z,75.79
2022-12-15T04:58:43.900Z,75.81
2022-12-15T05:09:04.521Z,75.57
2022-12-15T05:19:25.409Z,76.11
2022-12-15T05:29:46.260Z,76.77
2022-12-15T05:39:48.451Z,75.76
2022-12-15T05:49:51.389Z,75.38
2022-12-15T05:59:53.556Z,75.17
2022-12-15T06:09:55.754Z,76.09
2022-12-15T06:19:58.103Z,75.60
2022-12-15T06:30:00.250Z,75.25
2022-12-15T06:40:02.711Z,75.76
2022-12-15T06:50:05.207Z,76.90
2022-12-15T07:00:08.129Z,76.70
2022-12-15T07:10:11.228Z,77.08
2022-12-15T07:20:13.630Z,77.50
2022-12-15T07:30:18.061Z,77.26
2022-12-15T07:40:20.598Z,77.96
2022-12-15T07:50:23.252Z,78.32
2022-12-15T08:00:25.558Z,78.23
2022-12-15T08:10:28.019Z,78.05
2022-12-15T08:20:31.315Z,77.01
2022-12-15T08:30:34.463Z,75.69
2022-12-15T08:40:36.669Z,75.39
2022-12-15T08:50:42.542Z,73.46
2022-12-15T09:00:45.482Z,72.84
2022-12-15T09:10:47.724Z,72.33
2022-12-15T09:20:55.450Z,72.81
2022-12-15T09:31:03.768Z,72.40
2022-12-15T09:41:16.108Z,72.58
2022-12-15T09:51:19.033Z,72.16
2022-12-15T10:01:36.297Z,72.02
2022-12-15T10:12:08.776Z,71.92
2022-12-15T10:22:18.910Z,71.69
2022-12-15T10:32:43.041Z,71.01
2022-12-15T10:42:51.088Z,70.19
2022-12-15T10:52:53.306Z,70.14
2022-12-15T11:02:58.224Z,71.10
2022-12-15T11:13:12.704Z,71.48
2022-12-15T11:23:40.195Z,72.06
2022-12-15T11:33:42.585Z,73.13
2022-12-15T11:44:11.411Z,73.63
2022-12-15T11:54:18.469Z,73.85
2022-12-15T12:04:25.247Z,74.20
2022-12-15T12:14:27.611Z,73.89
2022-12-15T12:35:39.330Z,75.35
2022-12-15T12:45:53.941Z,75.48
2022-12-15T12:55:56.542Z,75.50
2022-12-15T13:05:58.787Z,75.95
2022-12-15T13:16:25.684Z,76.50
2022-12-15T13:26:31.491Z,75.80
2022-12-15T13:36:36.761Z,75.56
2022-12-15T13:46:39.585Z,75.77
2022-12-15T13:56:48.994Z,75.99
2022-12-15T14:07:00.499Z,75.72
2022-12-15T14:17:07.581Z,76.14
2022-12-15T14:27:09.964Z,75.95
2022-12-15T14:37:17.949Z,76.63
2022-12-15T14:47:27.134Z,77.22
2022-12-15T14:57:41.485Z,76.92
2022-12-15T15:03:09.975Z,75.07
2022-12-15T15:07:45.697Z,76.76
2022-12-15T15:17:47.865Z,77.21
2022-12-15T15:27:50.105Z,76.57
2022-12-15T15:37:56.010Z,78.34
2022-12-15T15:47:58.223Z,77.70
2022-12-15T15:58:00.378Z,76.83
2022-12-15T16:08:04.083Z,77.79
2022-12-15T16:18:06.295Z,78.72
2022-12-15T16:28:17.440Z,79.50
2022-12-15T16:38:26.956Z,78.45
2022-12-15T16:48:29.802Z,78.42
2022-12-15T16:58:35.124Z,78.69
2022-12-15T17:08:43.796Z,78.99
2022-12-15T17:18:46.329Z,79.36
2022-12-15T17:28:49.076Z,78.80
2022-12-15T17:38:59.609Z,78.58
2022-12-15T17:49:01.807Z,79.39
2022-12-15T17:59:06.471Z,79.29
2022-12-15T18:09:15.535Z,77.66
2022-12-15T18:19:17.714Z,78.62
2022-12-15T18:29:20.043Z,78.12
2022-12-15T18:39:24.171Z,78.13
2022-12-15T18:49:26.432Z,78.27
2022-12-15T18:59:28.651Z,78.49
2022-12-15T19:09:30.851Z,78.59
2022-12-15T19:19:51.431Z,78.49
2022-12-15T19:29:55.009Z,78.15
2022-12-15T19:40:01.147Z,79.02
2022-12-15T19:50:03.538Z,78.52
2022-12-15T20:00:18.012Z,79.16
2022-12-15T20:10:31.756Z,77.88
2022-12-15T20:20:35.275Z,77.58
2022-12-15T20:30:37.469Z,77.79
2022-12-15T20:40:39.635Z,77.93
2022-12-15T20:50:48.233Z,77.49
2022-12-15T21:00:51.714Z,77.14
2022-12-15T21:10:59.966Z,77.22
2022-12-15T21:21:02.360Z,77.51
2022-12-15T21:40:17.931Z,77.33
2022-12-15T21:50:20.371Z,77.22
2022-12-15T22:00:23.649Z,76.48
2022-12-15T22:10:26.031Z,75.92
2022-12-15T22:20:28.207Z,75.90
2022-12-15T22:30:30.410Z,77.01
2022-12-15T22:40:32.638Z,77.52
2022-12-15T22:50:34.818Z,77.34
2022-12-15T23:00:37.869Z,77.46
2022-12-15T23:10:58.906Z,77.39
2022-12-15T23:21:01.748Z,76.96
2022-12-15T23:31:04.872Z,76.82
2022-12-15T23:41:07.296Z,76.82
2022-12-15T23:51:12.173Z,76.88
